sensor_id;sensor_type;location;lat;lon;timestamp;P1;durP1;ratioP1;P2;durP2;ratioP2
21527;SDS011;10925;49.102;-0.370;2022-09-12T00:01:46;6.45;;;2.40;;
21527;SDS011;10925;49.102;-0.370;2022-09-12T00:04:13;5.50;;;2.40;;
21527;SDS011;10925;49.102;-0.370;2022-09-12T00:06:40;5.80;;;2.28;;
21527;SDS011;10925;49.102;-0.370;2022-09-12T00:09:08;3.45;;;2.47;;
21527;SDS011;10925;49.102;-0.370;2022-09-12T00:11:36;4.60;;;2.58;;
21527;SDS011;10925;49.102;-0.370;2022-09-12T00:14:03;5.50;;;2.63;;
21527;SDS011;10925;49.102;-0.370;2022-09-12T00:16:31;4.70;;;2.50;;
21527;SDS011;10925;49.102;-0.370;2022-09-12T00:18:58;7.05;;;2.70;;
21527;SDS011;10925;49.102;-0.370;2022-09-12T00:21:26;2.97;;;2.50;;
21527;SDS011;10925;49.102;-0.370;2022-09-12T00:23:51;2.70;;;2.50;;
21527;SDS011;10925;49.102;-0.370;2022-09-12T00:26:17;5.80;;;2.65;;
21527;SDS011;10925;49.102;-0.370;2022-09-12T00:28:47;4.38;;;2.67;;
21527;SDS011;10925;49.102;-0.370;2022-09-12T00:31:18;3.78;;;2.42;;
21527;SDS011;10925;49.102;-0.370;2022-09-12T00:33:43;3.35;;;2.33;;
21527;SDS011;10925;49.102;-0.370;2022-09-12T00:36:12;5.85;;;2.42;;
21527;SDS011;10925;49.102;-0.370;2022-09-12T00:38:40;5.65;;;2.60;;
21527;SDS011;10925;49.102;-0.370;2022-09-12T00:41:21;2.88;;;2.20;;
21527;SDS011;10925;49.102;-0.370;2022-09-12T00:44:01;4.55;;;2.70;;
21527;SDS011;10925;49.102;-0.370;2022-09-12T00:49:01;6.28;;;3.15;;
21527;SDS011;10925;49.102;-0.370;2022-09-12T00:51:28;5.15;;;2.70;;
21527;SDS011;10925;49.102;-0.370;2022-09-12T00:53:57;4.43;;;2.90;;
21527;SDS011;10925;49.102;-0.370;2022-09-12T00:56:25;7.30;;;2.33;;
21527;SDS011;10925;49.102;-0.370;2022-09-12T00:58:54;6.10;;;2.70;;
21527;SDS011;10925;49.102;-0.370;2022-09-12T01:01:22;3.58;;;2.38;;
21527;SDS011;10925;49.102;-0.370;2022-09-12T01:03:49;4.10;;;2.58;;
21527;SDS011;10925;49.102;-0.370;2022-09-12T01:06:23;3.80;;;2.25;;
21527;SDS011;10925;49.102;-0.370;2022-09-12T01:08:50;7.72;;;2.92;;
21527;SDS011;10925;49.102;-0.370;2022-09-12T01:11:18;5.15;;;2.42;;
21527;SDS011;10925;49.102;-0.370;2022-09-12T01:13:45;5.05;;;2.63;;
21527;SDS011;10925;49.102;-0.370;2022-09-12T01:16:11;3.70;;;2.50;;
21527;SDS011;10925;49.102;-0.370;2022-09-12T01:21:47;6.00;;;3.00;;
21527;SDS011;10925;49.102;-0.370;2022-09-12T01:24:32;4.78;;;2.92;;
21527;SDS011;10925;49.102;-0.370;2022-09-12T01:40:32;4.40;;;2.88;;
21527;SDS011;10925;49.102;-0.370;2022-09-12T01:43:02;4.78;;;3.25;;
21527;SDS011;10925;49.102;-0.370;2022-09-12T01:45:35;3.25;;;2.85;;
21527;SDS011;10925;49.102;-0.370;2022-09-12T01:50:51;4.72;;;3.10;;
21527;SDS011;10925;49.102;-0.370;2022-09-12T01:53:21;4.72;;;3.40;;
21527;SDS011;10925;49.102;-0.370;2022-09-12T01:55:50;5.18;;;3.10;;
21527;SDS011;10925;49.102;-0.370;2022-09-12T01:58:19;7.32;;;3.38;;
21527;SDS011;10925;49.102;-0.370;2022-09-12T02:03:19;7.50;;;3.35;;
21527;SDS011;10925;49.102;-0.370;2022-09-12T02:05:47;4.43;;;3.22;;
21527;SDS011;10925;49.102;-0.370;2022-09-12T02:08:34;7.03;;;3.05;;
21527;SDS011;10925;49.102;-0.370;2022-09-12T02:11:05;6.05;;;3.10;;
21527;SDS011;10925;49.102;-0.370;2022-09-12T02:16:34;7.82;;;3.55;;
21527;SDS011;10925;49.102;-0.370;2022-09-12T02:19:04;6.05;;;3.58;;
21527;SDS011;10925;49.102;-0.370;2022-09-12T02:21:32;5.50;;;3.20;;
21527;SDS011;10925;49.102;-0.370;2022-09-12T02:24:01;4.30;;;3.10;;
21527;SDS011;10925;49.102;-0.370;2022-09-12T02:26:31;9.18;;;4.10;;
21527;SDS011;10925;49.102;-0.370;2022-09-12T02:28:58;7.47;;;3.60;;
21527;SDS011;10925;49.102;-0.370;2022-09-12T02:34:13;6.30;;;3.47;;
21527;SDS011;10925;49.102;-0.370;2022-09-12T02:36:45;5.65;;;3.40;;
21527;SDS011;10925;49.102;-0.370;2022-09-12T02:39:15;5.30;;;3.33;;
21527;SDS011;10925;49.102;-0.370;2022-09-12T02:41:45;7.35;;;3.83;;
21527;SDS011;10925;49.102;-0.370;2022-09-12T02:44:12;7.72;;;4.10;;
21527;SDS011;10925;49.102;-0.370;2022-09-12T02:46:40;7.47;;;3.88;;
21527;SDS011;10925;49.102;-0.370;2022-09-12T02:49:07;6.53;;;3.58;;
21527;SDS011;10925;49.102;-0.370;2022-09-12T02:51:35;4.95;;;3.60;;
21527;SDS011;10925;49.102;-0.370;2022-09-12T02:54:01;7.97;;;3.53;;
21527;SDS011;10925;49.102;-0.370;2022-09-12T02:56:29;6.93;;;3.22;;
21527;SDS011;10925;49.102;-0.370;2022-09-12T02:59:00;5.32;;;3.50;;
21527;SDS011;10925;49.102;-0.370;2022-09-12T03:06:47;4.60;;;3.53;;
21527;SDS011;10925;49.102;-0.370;2022-09-12T03:11:52;4.15;;;3.25;;
21527;SDS011;10925;49.102;-0.370;2022-09-12T03:14:42;5.80;;;3.20;;
21527;SDS011;10925;49.102;-0.370;2022-09-12T03:17:25;7.93;;;3.53;;
21527;SDS011;10925;49.102;-0.370;2022-09-12T03:22:51;6.68;;;3.28;;
21527;SDS011;10925;49.102;-0.370;2022-09-12T03:27:55;4.47;;;3.70;;
21527;SDS011;10925;49.102;-0.370;2022-09-12T03:30:23;9.02;;;3.97;;
21527;SDS011;10925;49.102;-0.370;2022-09-12T03:32:49;7.22;;;4.22;;
21527;SDS011;10925;49.102;-0.370;2022-09-12T03:35:16;6.60;;;4.03;;
21527;SDS011;10925;49.102;-0.370;2022-09-12T03:37:48;6.70;;;4.30;;
21527;SDS011;10925;49.102;-0.370;2022-09-12T03:40:14;9.77;;;3.80;;
21527;SDS011;10925;49.102;-0.370;2022-09-12T03:42:39;4.30;;;3.65;;
21527;SDS011;10925;49.102;-0.370;2022-09-12T03:45:07;6.53;;;3.70;;
21527;SDS011;10925;49.102;-0.370;2022-09-12T03:47:32;10.23;;;4.30;;
21527;SDS011;10925;49.102;-0.370;2022-09-12T03:49:58;4.93;;;3.65;;
21527;SDS011;10925;49.102;-0.370;2022-09-12T03:52:23;7.75;;;3.90;;
21527;SDS011;10925;49.102;-0.370;2022-09-12T03:54:49;7.60;;;3.83;;
21527;SDS011;10925;49.102;-0.370;2022-09-12T03:57:16;10.40;;;3.90;;
21527;SDS011;10925;49.102;-0.370;2022-09-12T04:02:45;4.20;;;3.42;;
21527;SDS011;10925;49.102;-0.370;2022-09-12T04:05:12;4.57;;;3.50;;
21527;SDS011;10925;49.102;-0.370;2022-09-12T04:07:38;6.03;;;4.03;;
21527;SDS011;10925;49.102;-0.370;2022-09-12T04:10:05;7.30;;;3.70;;
21527;SDS011;10925;49.102;-0.370;2022-09-12T04:12:32;8.27;;;3.78;;
21527;SDS011;10925;49.102;-0.370;2022-09-12T04:15:00;4.30;;;3.90;;
21527;SDS011;10925;49.102;-0.370;2022-09-12T04:17:26;8.38;;;3.90;;
21527;SDS011;10925;49.102;-0.370;2022-09-12T04:19:53;5.72;;;4.05;;
21527;SDS011;10925;49.102;-0.370;2022-09-12T04:22:19;6.70;;;4.22;;
21527;SDS011;10925;49.102;-0.370;2022-09-12T04:24:46;6.50;;;3.90;;
21527;SDS011;10925;49.102;-0.370;2022-09-12T04:27:13;7.13;;;4.43;;
21527;SDS011;10925;49.102;-0.370;2022-09-12T04:29:39;4.15;;;3.60;;
21527;SDS011;10925;49.102;-0.370;2022-09-12T04:32:06;6.25;;;3.70;;
21527;SDS011;10925;49.102;-0.370;2022-09-12T04:34:33;6.90;;;3.75;;
21527;SDS011;10925;49.102;-0.370;2022-09-12T04:36:59;5.07;;;3.65;;
21527;SDS011;10925;49.102;-0.370;2022-09-12T04:39:25;4.65;;;4.10;;
21527;SDS011;10925;49.102;-0.370;2022-09-12T04:41:52;4.90;;;3.67;;
21527;SDS011;10925;49.102;-0.370;2022-09-12T04:44:19;7.40;;;3.63;;
21527;SDS011;10925;49.102;-0.370;2022-09-12T04:46:49;5.57;;;3.88;;
21527;SDS011;10925;49.102;-0.370;2022-09-12T04:49:16;7.72;;;4.10;;
21527;SDS011;10925;49.102;-0.370;2022-09-12T04:51:45;4.55;;;3.53;;
21527;SDS011;10925;49.102;-0.370;2022-09-12T04:54:14;5.95;;;3.90;;
21527;SDS011;10925;49.102;-0.370;2022-09-12T04:56:40;6.75;;;3.78;;
21527;SDS011;10925;49.102;-0.370;2022-09-12T04:59:06;5.45;;;3.80;;
21527;SDS011;10925;49.102;-0.370;2022-09-12T05:01:34;4.75;;;3.35;;
21527;SDS011;10925;49.102;-0.370;2022-09-12T05:04:01;6.75;;;4.03;;
21527;SDS011;10925;49.102;-0.370;2022-09-12T05:06:28;6.00;;;4.00;;
21527;SDS011;10925;49.102;-0.370;2022-09-12T05:08:54;5.78;;;4.18;;
21527;SDS011;10925;49.102;-0.370;2022-09-12T05:11:29;8.35;;;4.07;;
21527;SDS011;10925;49.102;-0.370;2022-09-12T05:14:23;7.37;;;4.47;;
21527;SDS011;10925;49.102;-0.370;2022-09-12T05:16:51;8.43;;;3.65;;
21527;SDS011;10925;49.102;-0.370;2022-09-12T05:19:18;5.03;;;4.00;;
21527;SDS011;10925;49.102;-0.370;2022-09-12T05:21:45;5.72;;;3.88;;
21527;SDS011;10925;49.102;-0.370;2022-09-12T05:24:12;7.35;;;4.28;;
21527;SDS011;10925;49.102;-0.370;2022-09-12T05:26:37;6.30;;;4.22;;
21527;SDS011;10925;49.102;-0.370;2022-09-12T05:29:03;5.90;;;4.20;;
21527;SDS011;10925;49.102;-0.370;2022-09-12T05:31:30;5.40;;;4.40;;
21527;SDS011;10925;49.102;-0.370;2022-09-12T05:33:56;7.32;;;4.80;;
21527;SDS011;10925;49.102;-0.370;2022-09-12T05:36:25;8.73;;;4.65;;
21527;SDS011;10925;49.102;-0.370;2022-09-12T05:38:52;11.45;;;4.47;;
21527;SDS011;10925;49.102;-0.370;2022-09-12T05:41:20;5.95;;;4.65;;
21527;SDS011;10925;49.102;-0.370;2022-09-12T05:43:54;8.23;;;5.25;;
21527;SDS011;10925;49.102;-0.370;2022-09-12T05:46:22;7.07;;;5.00;;
21527;SDS011;10925;49.102;-0.370;2022-09-12T05:48:49;7.30;;;4.63;;
21527;SDS011;10925;49.102;-0.370;2022-09-12T05:51:25;10.55;;;5.30;;
21527;SDS011;10925;49.102;-0.370;2022-09-12T05:53:52;8.25;;;5.10;;
21527;SDS011;10925;49.102;-0.370;2022-09-12T05:56:20;7.57;;;4.55;;
21527;SDS011;10925;49.102;-0.370;2022-09-12T05:58:53;13.73;;;5.10;;
21527;SDS011;10925;49.102;-0.370;2022-09-12T06:01:20;9.25;;;5.00;;
21527;SDS011;10925;49.102;-0.370;2022-09-12T06:03:47;7.97;;;4.95;;
21527;SDS011;10925;49.102;-0.370;2022-09-12T06:06:15;9.50;;;4.90;;
21527;SDS011;10925;49.102;-0.370;2022-09-12T06:08:43;7.15;;;4.47;;
21527;SDS011;10925;49.102;-0.370;2022-09-12T06:11:10;6.95;;;4.47;;
21527;SDS011;10925;49.102;-0.370;2022-09-12T06:13:38;10.15;;;4.53;;
21527;SDS011;10925;49.102;-0.370;2022-09-12T06:18:35;6.50;;;3.85;;
21527;SDS011;10925;49.102;-0.370;2022-09-12T06:21:01;4.47;;;3.00;;
21527;SDS011;10925;49.102;-0.370;2022-09-12T06:23:27;3.15;;;2.40;;
21527;SDS011;10925;49.102;-0.370;2022-09-12T06:25:53;8.50;;;2.20;;
21527;SDS011;10925;49.102;-0.370;2022-09-12T06:28:20;5.32;;;2.20;;
21527;SDS011;10925;49.102;-0.370;2022-09-12T06:31:02;6.57;;;1.95;;
21527;SDS011;10925;49.102;-0.370;2022-09-12T06:33:29;4.88;;;2.00;;
21527;SDS011;10925;49.102;-0.370;2022-09-12T06:35:54;6.75;;;2.10;;
21527;SDS011;10925;49.102;-0.370;2022-09-12T06:38:21;6.18;;;2.25;;
21527;SDS011;10925;49.102;-0.370;2022-09-12T06:40:47;3.97;;;2.25;;
21527;SDS011;10925;49.102;-0.370;2022-09-12T06:43:14;4.40;;;2.67;;
21527;SDS011;10925;49.102;-0.370;2022-09-12T06:45:47;4.38;;;2.42;;
21527;SDS011;10925;49.102;-0.370;2022-09-12T06:48:13;4.13;;;2.50;;
21527;SDS011;10925;49.102;-0.370;2022-09-12T06:50:40;4.13;;;2.35;;
21527;SDS011;10925;49.102;-0.370;2022-09-12T06:53:07;4.22;;;2.25;;
21527;SDS011;10925;49.102;-0.370;2022-09-12T06:55:33;4.40;;;2.40;;
21527;SDS011;10925;49.102;-0.370;2022-09-12T06:58:00;11.75;;;2.63;;
21527;SDS011;10925;49.102;-0.370;2022-09-12T07:00:26;7.45;;;2.40;;
21527;SDS011;10925;49.102;-0.370;2022-09-12T07:02:53;2.63;;;2.25;;
21527;SDS011;10925;49.102;-0.370;2022-09-12T07:05:21;3.25;;;2.38;;
21527;SDS011;10925;49.102;-0.370;2022-09-12T07:07:48;5.78;;;2.72;;
21527;SDS011;10925;49.102;-0.370;2022-09-12T07:10:15;8.10;;;2.58;;
21527;SDS011;10925;49.102;-0.370;2022-09-12T07:12:47;3.83;;;2.30;;
21527;SDS011;10925;49.102;-0.370;2022-09-12T07:15:14;7.32;;;2.22;;
21527;SDS011;10925;49.102;-0.370;2022-09-12T07:17:40;5.07;;;2.45;;
21527;SDS011;10925;49.102;-0.370;2022-09-12T07:20:06;2.72;;;2.00;;
21527;SDS011;10925;49.102;-0.370;2022-09-12T07:22:31;6.10;;;1.98;;
21527;SDS011;10925;49.102;-0.370;2022-09-12T07:24:57;4.07;;;1.98;;
21527;SDS011;10925;49.102;-0.370;2022-09-12T07:27:22;7.88;;;1.80;;
21527;SDS011;10925;49.102;-0.370;2022-09-12T07:29:49;3.40;;;1.55;;
21527;SDS011;10925;49.102;-0.370;2022-09-12T07:32:16;3.53;;;1.50;;
21527;SDS011;10925;49.102;-0.370;2022-09-12T07:34:41;4.35;;;1.60;;
21527;SDS011;10925;49.102;-0.370;2022-09-12T07:37:09;2.88;;;1.52;;
21527;SDS011;10925;49.102;-0.370;2022-09-12T07:39:35;3.80;;;1.40;;
21527;SDS011;10925;49.102;-0.370;2022-09-12T07:42:03;4.45;;;1.77;;
21527;SDS011;10925;49.102;-0.370;2022-09-12T07:44:32;4.47;;;1.67;;
21527;SDS011;10925;49.102;-0.370;2022-09-12T07:46:59;3.38;;;1.50;;
21527;SDS011;10925;49.102;-0.370;2022-09-12T07:49:26;5.55;;;1.67;;
21527;SDS011;10925;49.102;-0.370;2022-09-12T07:51:52;4.28;;;1.58;;
21527;SDS011;10925;49.102;-0.370;2022-09-12T07:54:19;2.63;;;1.50;;
21527;SDS011;10925;49.102;-0.370;2022-09-12T07:56:46;4.88;;;1.50;;
21527;SDS011;10925;49.102;-0.370;2022-09-12T07:59:11;6.28;;;1.70;;
21527;SDS011;10925;49.102;-0.370;2022-09-12T08:01:38;2.15;;;1.20;;
21527;SDS011;10925;49.102;-0.370;2022-09-12T08:04:09;2.55;;;1.30;;
21527;SDS011;10925;49.102;-0.370;2022-09-12T08:06:38;7.10;;;2.10;;
21527;SDS011;10925;49.102;-0.370;2022-09-12T08:09:09;6.55;;;1.70;;
21527;SDS011;10925;49.102;-0.370;2022-09-12T08:11:37;4.35;;;1.70;;
21527;SDS011;10925;49.102;-0.370;2022-09-12T08:14:03;4.50;;;1.38;;
21527;SDS011;10925;49.102;-0.370;2022-09-12T08:16:31;2.55;;;1.30;;
21527;SDS011;10925;49.102;-0.370;2022-09-12T08:18:59;3.17;;;1.50;;
21527;SDS011;10925;49.102;-0.370;2022-09-12T08:21:27;3.08;;;1.30;;
21527;SDS011;10925;49.102;-0.370;2022-09-12T08:24:12;4.72;;;1.65;;
21527;SDS011;10925;49.102;-0.370;2022-09-12T08:26:39;6.65;;;1.30;;
21527;SDS011;10925;49.102;-0.370;2022-09-12T08:29:05;6.68;;;1.63;;
21527;SDS011;10925;49.102;-0.370;2022-09-12T08:34:01;2.88;;;1.23;;
21527;SDS011;10925;49.102;-0.370;2022-09-12T08:36:29;5.20;;;1.55;;
21527;SDS011;10925;49.102;-0.370;2022-09-12T08:38:59;4.32;;;1.20;;
21527;SDS011;10925;49.102;-0.370;2022-09-12T08:49:27;1.92;;;1.17;;
21527;SDS011;10925;49.102;-0.370;2022-09-12T08:51:55;4.82;;;1.20;;
21527;SDS011;10925;49.102;-0.370;2022-09-12T08:54:26;2.42;;;1.20;;
21527;SDS011;10925;49.102;-0.370;2022-09-12T08:56:54;8.18;;;1.10;;
21527;SDS011;10925;49.102;-0.370;2022-09-12T08:59:21;2.10;;;0.98;;
21527;SDS011;10925;49.102;-0.370;2022-09-12T09:01:48;3.40;;;1.10;;
21527;SDS011;10925;49.102;-0.370;2022-09-12T09:09:28;1.58;;;1.00;;
21527;SDS011;10925;49.102;-0.370;2022-09-12T09:12:59;5.18;;;1.55;;
21527;SDS011;10925;49.102;-0.370;2022-09-12T09:17:58;3.42;;;1.10;;
21527;SDS011;10925;49.102;-0.370;2022-09-12T09:23:07;2.60;;;1.10;;
21527;SDS011;10925;49.102;-0.370;2022-09-12T09:34:05;2.20;;;1.00;;
21527;SDS011;10925;49.102;-0.370;2022-09-12T09:36:49;6.53;;;1.08;;
21527;SDS011;10925;49.102;-0.370;2022-09-12T09:44:12;4.07;;;1.17;;
21527;SDS011;10925;49.102;-0.370;2022-09-12T09:46:38;1.45;;;1.10;;
21527;SDS011;10925;49.102;-0.370;2022-09-12T09:49:03;3.08;;;1.20;;
21527;SDS011;10925;49.102;-0.370;2022-09-12T09:51:35;2.60;;;0.95;;
21527;SDS011;10925;49.102;-0.370;2022-09-12T09:56:36;1.75;;;1.00;;
21527;SDS011;10925;49.102;-0.370;2022-09-12T09:59:10;2.85;;;0.90;;
21527;SDS011;10925;49.102;-0.370;2022-09-12T10:01:48;2.83;;;1.15;;
21527;SDS011;10925;49.102;-0.370;2022-09-12T10:04:19;2.08;;;1.23;;
21527;SDS011;10925;49.102;-0.370;2022-09-12T10:06:47;3.47;;;1.35;;
21527;SDS011;10925;49.102;-0.370;2022-09-12T10:09:17;4.82;;;2.00;;
21527;SDS011;10925;49.102;-0.370;2022-09-12T10:11:44;2.75;;;1.30;;
21527;SDS011;10925;49.102;-0.370;2022-09-12T10:16:57;3.95;;;1.40;;
21527;SDS011;10925;49.102;-0.370;2022-09-12T10:19:34;1.95;;;0.90;;
21527;SDS011;10925;49.102;-0.370;2022-09-12T10:22:02;2.78;;;1.17;;
21527;SDS011;10925;49.102;-0.370;2022-09-12T10:24:31;3.15;;;1.05;;
21527;SDS011;10925;49.102;-0.370;2022-09-12T10:27:13;1.70;;;0.82;;
21527;SDS011;10925;49.102;-0.370;2022-09-12T10:34:57;5.07;;;1.15;;
21527;SDS011;10925;49.102;-0.370;2022-09-12T10:37:28;3.17;;;0.82;;
21527;SDS011;10925;49.102;-0.370;2022-09-12T10:39:57;2.80;;;1.05;;
21527;SDS011;10925;49.102;-0.370;2022-09-12T10:42:47;4.72;;;1.02;;
21527;SDS011;10925;49.102;-0.370;2022-09-12T10:45:24;3.85;;;0.95;;
21527;SDS011;10925;49.102;-0.370;2022-09-12T10:47:52;2.35;;;0.80;;
21527;SDS011;10925;49.102;-0.370;2022-09-12T10:52:48;1.58;;;0.77;;
21527;SDS011;10925;49.102;-0.370;2022-09-12T10:55:15;1.73;;;0.82;;
21527;SDS011;10925;49.102;-0.370;2022-09-12T10:57:46;3.03;;;0.70;;
21527;SDS011;10925;49.102;-0.370;2022-09-12T11:00:16;2.42;;;0.80;;
21527;SDS011;10925;49.102;-0.370;2022-09-12T11:07:59;2.65;;;0.98;;
21527;SDS011;10925;49.102;-0.370;2022-09-12T11:15:55;4.57;;;0.77;;
21527;SDS011;10925;49.102;-0.370;2022-09-12T11:23:57;2.15;;;0.70;;
21527;SDS011;10925;49.102;-0.370;2022-09-12T11:31:58;2.45;;;0.77;;
21527;SDS011;10925;49.102;-0.370;2022-09-12T11:39:38;1.67;;;0.70;;
21527;SDS011;10925;49.102;-0.370;2022-09-12T11:42:08;2.47;;;0.55;;
21527;SDS011;10925;49.102;-0.370;2022-09-12T11:44:39;2.95;;;0.65;;
21527;SDS011;10925;49.102;-0.370;2022-09-12T11:47:09;3.97;;;0.80;;
21527;SDS011;10925;49.102;-0.370;2022-09-12T11:49:38;1.20;;;0.50;;
21527;SDS011;10925;49.102;-0.370;2022-09-12T11:52:06;4.30;;;0.70;;
21527;SDS011;10925;49.102;-0.370;2022-09-12T11:54:38;1.50;;;0.60;;
21527;SDS011;10925;49.102;-0.370;2022-09-12T12:02:07;2.22;;;0.70;;
21527;SDS011;10925;49.102;-0.370;2022-09-12T12:04:37;2.08;;;0.63;;
21527;SDS011;10925;49.102;-0.370;2022-09-12T12:07:05;1.88;;;0.60;;
21527;SDS011;10925;49.102;-0.370;2022-09-12T12:09:31;1.40;;;0.60;;
21527;SDS011;10925;49.102;-0.370;2022-09-12T12:11:59;1.02;;;0.55;;
21527;SDS011;10925;49.102;-0.370;2022-09-12T12:14:49;1.38;;;0.52;;
21527;SDS011;10925;49.102;-0.370;2022-09-12T12:17:23;0.77;;;0.52;;
21527;SDS011;10925;49.102;-0.370;2022-09-12T12:19:57;2.85;;;0.60;;
21527;SDS011;10925;49.102;-0.370;2022-09-12T12:22:31;3.28;;;0.60;;
21527;SDS011;10925;49.102;-0.370;2022-09-12T12:27:49;1.33;;;0.60;;
21527;SDS011;10925;49.102;-0.370;2022-09-12T12:32:58;1.73;;;0.55;;
21527;SDS011;10925;49.102;-0.370;2022-09-12T12:38:02;0.57;;;0.40;;
21527;SDS011;10925;49.102;-0.370;2022-09-12T12:40:29;2.63;;;0.50;;
21527;SDS011;10925;49.102;-0.370;2022-09-12T12:42:56;1.60;;;0.70;;
21527;SDS011;10925;49.102;-0.370;2022-09-12T12:47:53;2.45;;;0.65;;
21527;SDS011;10925;49.102;-0.370;2022-09-12T12:50:21;1.60;;;0.73;;
21527;SDS011;10925;49.102;-0.370;2022-09-12T12:55:20;2.53;;;0.70;;
21527;SDS011;10925;49.102;-0.370;2022-09-12T12:57:50;0.57;;;0.47;;
21527;SDS011;10925;49.102;-0.370;2022-09-12T13:02:51;1.38;;;0.50;;
21527;SDS011;10925;49.102;-0.370;2022-09-12T13:05:22;2.60;;;0.40;;
21527;SDS011;10925;49.102;-0.370;2022-09-12T13:08:03;1.27;;;0.50;;
21527;SDS011;10925;49.102;-0.370;2022-09-12T13:10:31;2.72;;;0.50;;
21527;SDS011;10925;49.102;-0.370;2022-09-12T13:12:58;2.38;;;0.52;;
21527;SDS011;10925;49.102;-0.370;2022-09-12T13:20:29;2.95;;;0.60;;
21527;SDS011;10925;49.102;-0.370;2022-09-12T13:22:57;1.25;;;0.50;;
21527;SDS011;10925;49.102;-0.370;2022-09-12T13:25:27;0.82;;;0.35;;
21527;SDS011;10925;49.102;-0.370;2022-09-12T13:28:34;1.83;;;0.50;;
21527;SDS011;10925;49.102;-0.370;2022-09-12T13:30:47;0.75;;;0.50;;
21527;SDS011;10925;49.102;-0.370;2022-09-12T13:43:55;4.75;;;0.55;;
21527;SDS011;10925;49.102;-0.370;2022-09-12T13:46:27;2.92;;;0.63;;
21527;SDS011;10925;49.102;-0.370;2022-09-12T13:48:56;1.35;;;0.65;;
21527;SDS011;10925;49.102;-0.370;2022-09-12T13:51:25;1.20;;;0.80;;
21527;SDS011;10925;49.102;-0.370;2022-09-12T13:53:53;1.95;;;0.68;;
21527;SDS011;10925;49.102;-0.370;2022-09-12T13:56:21;5.68;;;0.80;;
21527;SDS011;10925;49.102;-0.370;2022-09-12T13:58:52;4.32;;;0.75;;
21527;SDS011;10925;49.102;-0.370;2022-09-12T14:01:20;1.08;;;0.50;;
21527;SDS011;10925;49.102;-0.370;2022-09-12T14:03:49;1.77;;;0.60;;
21527;SDS011;10925;49.102;-0.370;2022-09-12T14:06:51;3.25;;;0.68;;
21527;SDS011;10925;49.102;-0.370;2022-09-12T14:09:29;4.03;;;0.60;;
21527;SDS011;10925;49.102;-0.370;2022-09-12T14:11:56;1.35;;;0.80;;
21527;SDS011;10925;49.102;-0.370;2022-09-12T14:14:26;4.55;;;0.95;;
21527;SDS011;10925;49.102;-0.370;2022-09-12T14:16:59;7.30;;;0.80;;
21527;SDS011;10925;49.102;-0.370;2022-09-12T14:19:26;1.13;;;0.63;;
21527;SDS011;10925;49.102;-0.370;2022-09-12T14:21:55;3.70;;;0.80;;
21527;SDS011;10925;49.102;-0.370;2022-09-12T14:24:21;3.63;;;0.80;;
21527;SDS011;10925;49.102;-0.370;2022-09-12T14:26:50;1.35;;;0.68;;
21527;SDS011;10925;49.102;-0.370;2022-09-12T14:29:18;3.90;;;0.70;;
21527;SDS011;10925;49.102;-0.370;2022-09-12T14:31:45;1.58;;;0.80;;
21527;SDS011;10925;49.102;-0.370;2022-09-12T14:34:13;1.65;;;0.70;;
21527;SDS011;10925;49.102;-0.370;2022-09-12T14:41:39;3.90;;;0.73;;
21527;SDS011;10925;49.102;-0.370;2022-09-12T14:44:07;2.92;;;0.80;;
21527;SDS011;10925;49.102;-0.370;2022-09-12T14:46:36;1.60;;;0.63;;
21527;SDS011;10925;49.102;-0.370;2022-09-12T14:51:39;2.97;;;0.70;;
21527;SDS011;10925;49.102;-0.370;2022-09-12T14:54:32;4.72;;;0.70;;
21527;SDS011;10925;49.102;-0.370;2022-09-12T14:57:03;2.40;;;0.70;;
21527;SDS011;10925;49.102;-0.370;2022-09-12T15:04:50;5.25;;;0.77;;
21527;SDS011;10925;49.102;-0.370;2022-09-12T15:07:27;2.15;;;0.52;;
21527;SDS011;10925;49.102;-0.370;2022-09-12T15:09:53;0.70;;;0.60;;
21527;SDS011;10925;49.102;-0.370;2022-09-12T15:12:19;1.58;;;0.60;;
21527;SDS011;10925;49.102;-0.370;2022-09-12T15:14:46;3.65;;;0.77;;
21527;SDS011;10925;49.102;-0.370;2022-09-12T15:17:12;2.22;;;0.80;;
21527;SDS011;10925;49.102;-0.370;2022-09-12T15:19:38;2.10;;;0.70;;
21527;SDS011;10925;49.102;-0.370;2022-09-12T15:22:04;2.05;;;0.73;;
21527;SDS011;10925;49.102;-0.370;2022-09-12T15:24:31;4.00;;;0.85;;
21527;SDS011;10925;49.102;-0.370;2022-09-12T15:26:58;4.05;;;0.73;;
21527;SDS011;10925;49.102;-0.370;2022-09-12T15:29:23;1.70;;;0.82;;
21527;SDS011;10925;49.102;-0.370;2022-09-12T15:31:50;1.60;;;0.80;;
21527;SDS011;10925;49.102;-0.370;2022-09-12T15:34:17;2.15;;;0.80;;
21527;SDS011;10925;49.102;-0.370;2022-09-12T15:36:44;2.08;;;0.60;;
21527;SDS011;10925;49.102;-0.370;2022-09-12T15:39:10;4.00;;;0.80;;
21527;SDS011;10925;49.102;-0.370;2022-09-12T15:41:36;2.55;;;0.70;;
21527;SDS011;10925;49.102;-0.370;2022-09-12T15:44:03;2.22;;;0.73;;
21527;SDS011;10925;49.102;-0.370;2022-09-12T15:46:30;1.67;;;0.70;;
21527;SDS011;10925;49.102;-0.370;2022-09-12T15:48:57;1.35;;;0.70;;
21527;SDS011;10925;49.102;-0.370;2022-09-12T15:51:23;1.52;;;0.70;;
21527;SDS011;10925;49.102;-0.370;2022-09-12T15:53:49;0.80;;;0.50;;
21527;SDS011;10925;49.102;-0.370;2022-09-12T15:56:17;2.50;;;0.60;;
21527;SDS011;10925;49.102;-0.370;2022-09-12T15:58:44;1.75;;;0.73;;
21527;SDS011;10925;49.102;-0.370;2022-09-12T16:01:24;0.80;;;0.60;;
21527;SDS011;10925;49.102;-0.370;2022-09-12T16:03:50;1.45;;;0.60;;
21527;SDS011;10925;49.102;-0.370;2022-09-12T16:06:16;1.10;;;0.55;;
21527;SDS011;10925;49.102;-0.370;2022-09-12T16:08:43;1.17;;;0.63;;
21527;SDS011;10925;49.102;-0.370;2022-09-12T16:11:15;2.30;;;0.70;;
21527;SDS011;10925;49.102;-0.370;2022-09-12T16:13:43;2.65;;;0.70;;
21527;SDS011;10925;49.102;-0.370;2022-09-12T16:16:08;1.30;;;0.70;;
21527;SDS011;10925;49.102;-0.370;2022-09-12T16:18:35;3.00;;;0.80;;
21527;SDS011;10925;49.102;-0.370;2022-09-12T16:21:04;1.48;;;0.70;;
21527;SDS011;10925;49.102;-0.370;2022-09-12T16:23:30;2.70;;;0.70;;
21527;SDS011;10925;49.102;-0.370;2022-09-12T16:25:58;4.53;;;0.68;;
21527;SDS011;10925;49.102;-0.370;2022-09-12T16:28:23;2.03;;;0.47;;
21527;SDS011;10925;49.102;-0.370;2022-09-12T16:30:56;0.80;;;0.70;;
21527;SDS011;10925;49.102;-0.370;2022-09-12T16:33:22;3.65;;;0.77;;
21527;SDS011;10925;49.102;-0.370;2022-09-12T16:35:49;3.58;;;0.93;;
21527;SDS011;10925;49.102;-0.370;2022-09-12T16:38:16;2.53;;;0.80;;
21527;SDS011;10925;49.102;-0.370;2022-09-12T16:40:47;2.85;;;0.80;;
21527;SDS011;10925;49.102;-0.370;2022-09-12T16:43:16;2.05;;;0.80;;
21527;SDS011;10925;49.102;-0.370;2022-09-12T16:45:44;2.15;;;0.90;;
21527;SDS011;10925;49.102;-0.370;2022-09-12T16:48:10;3.05;;;0.93;;
21527;SDS011;10925;49.102;-0.370;2022-09-12T16:50:35;4.35;;;1.00;;
21527;SDS011;10925;49.102;-0.370;2022-09-12T16:53:02;2.95;;;0.90;;
21527;SDS011;10925;49.102;-0.370;2022-09-12T16:55:28;2.17;;;0.95;;
21527;SDS011;10925;49.102;-0.370;2022-09-12T16:57:54;5.03;;;1.25;;
21527;SDS011;10925;49.102;-0.370;2022-09-12T17:00:22;1.83;;;1.00;;
21527;SDS011;10925;49.102;-0.370;2022-09-12T17:02:48;2.60;;;1.20;;
21527;SDS011;10925;49.102;-0.370;2022-09-12T17:05:17;1.80;;;1.00;;
21527;SDS011;10925;49.102;-0.370;2022-09-12T17:07:44;2.58;;;1.08;;
21527;SDS011;10925;49.102;-0.370;2022-09-12T17:10:12;1.55;;;0.90;;
21527;SDS011;10925;49.102;-0.370;2022-09-12T17:12:51;2.72;;;1.27;;
21527;SDS011;10925;49.102;-0.370;2022-09-12T17:15:20;3.83;;;1.20;;
21527;SDS011;10925;49.102;-0.370;2022-09-12T17:17:45;2.63;;;1.15;;
21527;SDS011;10925;49.102;-0.370;2022-09-12T17:20:13;2.35;;;1.20;;
21527;SDS011;10925;49.102;-0.370;2022-09-12T17:22:42;2.58;;;1.10;;
21527;SDS011;10925;49.102;-0.370;2022-09-12T17:25:07;3.67;;;0.98;;
21527;SDS011;10925;49.102;-0.370;2022-09-12T17:27:40;1.80;;;1.02;;
21527;SDS011;10925;49.102;-0.370;2022-09-12T17:30:07;3.05;;;1.30;;
21527;SDS011;10925;49.102;-0.370;2022-09-12T17:32:37;2.90;;;1.00;;
21527;SDS011;10925;49.102;-0.370;2022-09-12T17:35:08;4.43;;;1.30;;
21527;SDS011;10925;49.102;-0.370;2022-09-12T17:37:36;4.07;;;1.23;;